Time;durP1;ratioP1;P1;durP2;ratioP2;P2;SDS_P1;SDS_P2;PMS_P1;PMS_P2;Temp;Humidity;BMP_temperature;BMP_pressure;BME280_temperature;BME280_humidity;BME280_pressure;Samples;Min_cycle;Max_cycle;Signal;HPM_P1;HPM_P2
2023/03/09 00:00:39;;;;;;;;;;;17.90;32.10;;;;;;5138079;27;19919;-72
2023/03/09 00:03:15;;;;;;;;;;;17.80;32.10;;;;;;5155736;27;19923;-71
2023/03/09 00:05:51;;;;;;;;;;;17.80;32.20;;;;;;5137850;27;19926;-71
2023/03/09 00:08:16;;;;;;;;;;;17.80;32.30;;;;;;5137363;27;19919;-72
2023/03/09 00:10:42;;;;;;;;;;;17.70;32.30;;;;;;5156135;27;20022;-73
2023/03/09 00:13:07;;;;;;;;;;;17.70;32.40;;;;;;5137605;27;20021;-73
2023/03/09 00:15:33;;;;;;;;;;;17.70;32.40;;;;;;5155810;27;19942;-72
2023/03/09 00:17:59;;;;;;;;;;;17.70;32.50;;;;;;5156060;27;20345;-72
2023/03/09 00:20:24;;;;;;;;;;;17.70;32.50;;;;;;5155696;27;19919;-71
2023/03/09 00:22:53;;;;;;;;;;;17.60;32.40;;;;;;5137271;27;20073;-71
2023/03/09 00:25:21;;;;;;;;;;;17.60;32.50;;;;;;5137418;27;19953;-71
2023/03/09 00:27:47;;;;;;;;;;;17.70;32.50;;;;;;5137048;27;20461;-71
2023/03/09 00:30:13;;;;;;;;;;;17.70;32.50;;;;;;5155646;27;19926;-71
2023/03/09 00:32:39;;;;;;;;;;;17.70;32.40;;;;;;5137275;27;19919;-71
2023/03/09 00:35:04;;;;;;;;;;;17.70;32.50;;;;;;5137204;27;20005;-70
2023/03/09 00:37:30;;;;;;;;;;;17.70;32.50;;;;;;5137313;27;20316;-73
2023/03/09 00:39:56;;;;;;;;;;;17.70;32.40;;;;;;5137056;27;19919;-72
2023/03/09 00:42:21;;;;;;;;;;;17.70;32.40;;;;;;5137029;27;19930;-75
2023/03/09 00:44:47;;;;;;;;;;;17.70;32.50;;;;;;5155305;27;20342;-71
2023/03/09 00:47:13;;;;;;;;;;;17.70;32.50;;;;;;5154342;27;19962;-71
2023/03/09 00:49:38;;;;;;;;;;;17.70;32.40;;;;;;5137174;27;19948;-70
2023/03/09 00:52:04;;;;;;;;;;;17.70;32.40;;;;;;5136897;27;19923;-70
2023/03/09 00:54:30;;;;;;;;;;;17.70;32.50;;;;;;5157012;27;20361;-70
2023/03/09 00:56:55;;;;;;;;;;;17.80;32.50;;;;;;5157577;27;19919;-71
2023/03/09 00:59:21;;;;;;;;;;;17.70;32.40;;;;;;5157211;27;20412;-71
2023/03/09 01:01:46;;;;;;;;;;;17.80;32.50;;;;;;5157182;27;19919;-74
2023/03/09 01:04:12;;;;;;;;;;;17.80;32.40;;;;;;5141568;27;20005;-74
2023/03/09 01:06:38;;;;;;;;;;;17.80;32.40;;;;;;5155233;27;19990;-70
2023/03/09 01:09:06;;;;;;;;;;;17.80;32.40;;;;;;5156936;27;19930;-73
2023/03/09 01:11:32;;;;;;;;;;;17.80;32.40;;;;;;5175655;27;20448;-70
2023/03/09 01:13:57;;;;;;;;;;;17.80;32.40;;;;;;5157076;27;19999;-70
2023/03/09 01:16:23;;;;;;;;;;;17.80;32.40;;;;;;5157092;27;19958;-74
2023/03/09 01:18:48;;;;;;;;;;;17.80;32.50;;;;;;5175573;27;19919;-75
2023/03/09 01:21:14;;;;;;;;;;;17.80;32.40;;;;;;5157146;27;20337;-71
2023/03/09 01:23:39;;;;;;;;;;;17.80;32.40;;;;;;5175571;27;20437;-71
2023/03/09 01:26:07;;;;;;;;;;;17.80;32.40;;;;;;5175493;27;19967;-74
2023/03/09 01:28:34;;;;;;;;;;;17.80;32.50;;;;;;5156816;27;19922;-73
2023/03/09 01:31:00;;;;;;;;;;;17.70;33.20;;;;;;5156947;27;19919;-70
2023/03/09 01:33:25;;;;;;;;;;;17.80;32.60;;;;;;5156657;27;20335;-75
2023/03/09 01:35:51;;;;;;;;;;;17.80;32.50;;;;;;5156686;27;19926;-70
2023/03/09 01:38:16;;;;;;;;;;;17.80;32.50;;;;;;5175211;27;19963;-73
2023/03/09 01:40:46;;;;;;;;;;;17.80;32.50;;;;;;5156491;27;20014;-70
2023/03/09 01:43:29;;;;;;;;;;;18.20;32.70;;;;;;5156342;27;19966;-71
2023/03/09 01:46:14;;;;;;;;;;;17.80;32.50;;;;;;5156498;27;20096;-73
2023/03/09 01:48:41;;;;;;;;;;;17.80;32.50;;;;;;5174899;27;19919;-70
2023/03/09 01:51:06;;;;;;;;;;;17.80;32.60;;;;;;5156438;27;19919;-71
2023/03/09 01:53:32;;;;;;;;;;;17.80;32.50;;;;;;5174987;27;19919;-70
2023/03/09 01:55:59;;;;;;;;;;;17.80;32.50;;;;;;5140586;27;20003;-70
2023/03/09 01:58:26;;;;;;;;;;;17.80;32.50;;;;;;5135194;27;19926;-70
2023/03/09 02:00:53;;;;;;;;;;;17.80;32.50;;;;;;5154351;27;20292;-73
2023/03/09 02:03:28;;;;;;;;;;;17.80;32.50;;;;;;5135372;27;19919;-71
2023/03/09 02:05:58;;;;;;;;;;;17.80;32.50;;;;;;5135418;27;19931;-70
2023/03/09 02:08:25;;;;;;;;;;;17.80;32.60;;;;;;5135414;27;20059;-71
2023/03/09 02:10:54;;;;;;;;;;;17.80;32.50;;;;;;5135507;27;19919;-74
2023/03/09 02:13:26;;;;;;;;;;;17.80;32.50;;;;;;5135673;27;19919;-75
2023/03/09 02:15:52;;;;;;;;;;;17.80;32.50;;;;;;5135719;27;19919;-74
2023/03/09 02:18:17;;;;;;;;;;;17.90;32.50;;;;;;5135720;27;19980;-75
2023/03/09 02:28:57;;;;;;;;;;;17.80;32.60;;;;;;5110226;27;19922;-73
2023/03/09 02:31:23;;;;;;;;;;;17.80;32.60;;;;;;5109174;28;20020;-71
2023/03/09 02:33:48;;;;;;;;;;;17.80;32.60;;;;;;5109186;28;20362;-74
2023/03/09 02:36:14;;;;;;;;;;;17.80;32.60;;;;;;5108802;28;20375;-74
2023/03/09 02:38:39;;;;;;;;;;;17.80;32.60;;;;;;5108985;28;20019;-70
2023/03/09 02:41:07;;;;;;;;;;;17.80;32.60;;;;;;5108828;28;19968;-71
2023/03/09 02:43:35;;;;;;;;;;;17.80;32.60;;;;;;5108957;28;19924;-74
2023/03/09 02:46:00;;;;;;;;;;;17.80;32.60;;;;;;5107867;28;20371;-70
2023/03/09 02:48:26;;;;;;;;;;;17.80;32.50;;;;;;5108485;28;20011;-71
2023/03/09 02:50:52;;;;;;;;;;;17.80;32.50;;;;;;5108527;28;19972;-72
2023/03/09 02:53:17;;;;;;;;;;;17.80;32.60;;;;;;5109696;28;19920;-70
2023/03/09 02:55:43;;;;;;;;;;;17.80;32.50;;;;;;5108648;28;19935;-74
2023/03/09 02:58:08;;;;;;;;;;;17.80;32.60;;;;;;5108461;28;20294;-75
2023/03/09 03:00:34;;;;;;;;;;;17.80;32.60;;;;;;5107917;28;19924;-73
2023/03/09 03:02:59;;;;;;;;;;;17.80;32.60;;;;;;5109529;28;19927;-74
2023/03/09 03:05:25;;;;;;;;;;;17.80;32.50;;;;;;5108283;28;20006;-71
2023/03/09 03:07:51;;;;;;;;;;;17.80;32.60;;;;;;5109334;28;19927;-71
2023/03/09 03:10:16;;;;;;;;;;;17.80;32.50;;;;;;5108246;28;19920;-73
2023/03/09 03:12:42;;;;;;;;;;;17.80;32.60;;;;;;5108199;28;19920;-75
2023/03/09 03:15:08;;;;;;;;;;;17.80;32.60;;;;;;5108248;28;20024;-70
2023/03/09 03:17:34;;;;;;;;;;;17.80;32.60;;;;;;5108444;28;20015;-70
2023/03/09 03:19:59;;;;;;;;;;;17.80;32.60;;;;;;5109420;28;20161;-71
2023/03/09 03:22:25;;;;;;;;;;;17.80;32.60;;;;;;5107932;28;20291;-71
2023/03/09 03:24:53;;;;;;;;;;;17.80;32.50;;;;;;5107881;28;19920;-73
2023/03/09 03:27:19;;;;;;;;;;;17.80;32.50;;;;;;5107802;28;19981;-71
2023/03/09 03:29:45;;;;;;;;;;;17.80;32.60;;;;;;5108044;28;20272;-70
2023/03/09 03:32:11;;;;;;;;;;;17.80;32.60;;;;;;5109126;28;19920;-70
2023/03/09 03:34:37;;;;;;;;;;;17.80;32.60;;;;;;5108130;28;19969;-70
2023/03/09 03:37:02;;;;;;;;;;;17.80;32.60;;;;;;5107606;28;20298;-71
2023/03/09 03:39:28;;;;;;;;;;;17.80;32.60;;;;;;5098900;28;19994;-72
2023/03/09 03:41:53;;;;;;;;;;;17.80;32.60;;;;;;5094328;28;20069;-71
2023/03/09 03:44:19;;;;;;;;;;;17.80;33.40;;;;;;5093947;28;20466;-70
2023/03/09 03:46:44;;;;;;;;;;;17.80;32.60;;;;;;5094177;28;19920;-70
2023/03/09 03:49:10;;;;;;;;;;;17.80;32.60;;;;;;5094321;28;19924;-71
2023/03/09 03:51:35;;;;;;;;;;;17.80;32.60;;;;;;5093819;28;20371;-71
2023/03/09 03:54:01;;;;;;;;;;;17.80;32.60;;;;;;5093802;28;20010;-74
2023/03/09 03:56:26;;;;;;;;;;;17.80;32.60;;;;;;5095165;28;19924;-73
2023/03/09 03:58:52;;;;;;;;;;;17.80;32.50;;;;;;5093741;28;19920;-70
2023/03/09 04:01:18;;;;;;;;;;;17.80;32.50;;;;;;5093703;28;19926;-75
2023/03/09 04:03:43;;;;;;;;;;;17.80;32.60;;;;;;5093922;28;19920;-70
2023/03/09 04:06:09;;;;;;;;;;;17.80;32.60;;;;;;5094850;28;20286;-70
2023/03/09 04:08:34;;;;;;;;;;;17.80;32.60;;;;;;5094708;28;19924;-70
2023/03/09 04:11:04;;;;;;;;;;;17.80;32.50;;;;;;5094975;28;20015;-74
2023/03/09 04:13:30;;;;;;;;;;;17.80;32.60;;;;;;5093490;28;20002;-73
2023/03/09 04:15:55;;;;;;;;;;;17.80;32.50;;;;;;5093444;28;19959;-70
2023/03/09 04:18:21;;;;;;;;;;;17.80;32.60;;;;;;5093286;28;19970;-76
2023/03/09 04:20:46;;;;;;;;;;;17.80;32.60;;;;;;5093291;28;19927;-70
2023/03/09 04:23:12;;;;;;;;;;;17.80;32.60;;;;;;5093249;28;19920;-70
2023/03/09 04:25:37;;;;;;;;;;;17.90;32.60;;;;;;5093478;28;19974;-70
2023/03/09 04:28:03;;;;;;;;;;;17.80;32.50;;;;;;5107404;28;19931;-70
2023/03/09 04:30:28;;;;;;;;;;;17.90;32.60;;;;;;5096707;28;19923;-70
2023/03/09 04:32:54;;;;;;;;;;;17.90;32.60;;;;;;5130575;27;20330;-74
2023/03/09 04:35:22;;;;;;;;;;;17.80;32.50;;;;;;5112934;28;19920;-74
2023/03/09 04:37:48;;;;;;;;;;;17.80;32.50;;;;;;5130459;27;19938;-70
2023/03/09 04:40:14;;;;;;;;;;;17.90;32.60;;;;;;5096468;28;19920;-74
2023/03/09 04:42:39;;;;;;;;;;;17.80;32.50;;;;;;5096185;28;19920;-70
2023/03/09 04:45:05;;;;;;;;;;;17.90;32.60;;;;;;5114860;28;20014;-71
2023/03/09 04:47:31;;;;;;;;;;;17.80;32.50;;;;;;5130432;27;19923;-75
2023/03/09 04:49:57;;;;;;;;;;;17.90;32.60;;;;;;5129849;27;20051;-70
2023/03/09 04:52:22;;;;;;;;;;;17.90;32.50;;;;;;5129914;27;19927;-72
2023/03/09 04:54:48;;;;;;;;;;;17.90;32.50;;;;;;5095885;28;19965;-71
2023/03/09 04:57:14;;;;;;;;;;;17.90;32.50;;;;;;5096483;28;19923;-71
2023/03/09 04:59:40;;;;;;;;;;;17.90;32.50;;;;;;5096383;28;19919;-73
2023/03/09 05:02:05;;;;;;;;;;;17.90;32.50;;;;;;5114358;28;19920;-71
2023/03/09 05:04:31;;;;;;;;;;;17.80;32.50;;;;;;5095967;28;19920;-70
2023/03/09 05:06:57;;;;;;;;;;;17.90;32.50;;;;;;5114084;28;19931;-73
2023/03/09 05:09:23;;;;;;;;;;;17.90;32.50;;;;;;5114428;28;20294;-74
2023/03/09 05:11:51;;;;;;;;;;;17.90;32.60;;;;;;5095719;28;20255;-70
2023/03/09 05:14:17;;;;;;;;;;;17.80;32.40;;;;;;5095970;28;19938;-75
2023/03/09 05:16:43;;;;;;;;;;;17.90;32.50;;;;;;5095899;28;20282;-70
2023/03/09 05:19:09;;;;;;;;;;;17.90;32.40;;;;;;5095786;28;19923;-75
2023/03/09 05:21:35;;;;;;;;;;;18.00;32.40;;;;;;5095854;28;19942;-73
2023/03/09 05:24:01;;;;;;;;;;;18.00;32.30;;;;;;5095704;28;19920;-70
2023/03/09 05:26:27;;;;;;;;;;;18.00;32.30;;;;;;5095693;28;20307;-73
2023/03/09 05:28:53;;;;;;;;;;;18.10;32.30;;;;;;5113090;28;20188;-70
2023/03/09 05:31:18;;;;;;;;;;;18.10;32.20;;;;;;5113566;28;19930;-75
2023/03/09 05:33:44;;;;;;;;;;;18.20;32.20;;;;;;5095246;28;19920;-71
2023/03/09 05:36:14;;;;;;;;;;;18.20;32.10;;;;;;5095235;28;19920;-70
2023/03/09 05:38:39;;;;;;;;;;;18.10;32.10;;;;;;5113472;28;20448;-71
2023/03/09 05:41:05;;;;;;;;;;;18.20;32.20;;;;;;5095091;28;19920;-70
2023/03/09 05:43:30;;;;;;;;;;;18.20;32.10;;;;;;5095411;28;19919;-71
2023/03/09 05:45:56;;;;;;;;;;;18.20;32.10;;;;;;5095060;28;20336;-73
2023/03/09 05:48:22;;;;;;;;;;;18.20;32.00;;;;;;5095008;28;19924;-72
2023/03/09 05:50:47;;;;;;;;;;;18.20;32.00;;;;;;5095032;28;19919;-70
2023/03/09 05:53:13;;;;;;;;;;;18.20;32.00;;;;;;5095033;28;19920;-71
2023/03/09 05:55:38;;;;;;;;;;;18.20;32.10;;;;;;5095039;28;19924;-73
2023/03/09 05:58:04;;;;;;;;;;;18.20;32.00;;;;;;5113610;28;20295;-70
2023/03/09 06:00:29;;;;;;;;;;;18.20;32.10;;;;;;5129234;27;19920;-70
2023/03/09 06:02:55;;;;;;;;;;;18.20;32.10;;;;;;5094243;28;19919;-75
2023/03/09 06:05:23;;;;;;;;;;;18.20;32.10;;;;;;5094829;28;20427;-71
2023/03/09 06:07:51;;;;;;;;;;;18.20;32.10;;;;;;5094799;28;19935;-70
2023/03/09 06:10:17;;;;;;;;;;;18.20;32.10;;;;;;5094987;28;20288;-70
2023/03/09 06:12:42;;;;;;;;;;;18.10;32.10;;;;;;5112887;28;19924;-72
2023/03/09 06:15:08;;;;;;;;;;;18.10;32.10;;;;;;5094871;28;19919;-70
2023/03/09 06:17:34;;;;;;;;;;;18.10;32.10;;;;;;5094641;28;20002;-75
2023/03/09 06:19:59;;;;;;;;;;;18.10;32.20;;;;;;5094584;28;19920;-71
2023/03/09 06:22:25;;;;;;;;;;;18.10;32.20;;;;;;5094487;28;19920;-72
2023/03/09 06:24:50;;;;;;;;;;;18.10;32.20;;;;;;5094908;28;19969;-70
2023/03/09 06:27:16;;;;;;;;;;;18.10;32.30;;;;;;5094298;28;20283;-70
2023/03/09 06:29:42;;;;;;;;;;;18.10;32.30;;;;;;5094748;28;20432;-75
2023/03/09 06:32:07;;;;;;;;;;;18.10;32.20;;;;;;5112747;28;19920;-73
2023/03/09 06:34:33;;;;;;;;;;;18.00;32.20;;;;;;5113095;28;19946;-71
2023/03/09 06:36:58;;;;;;;;;;;18.10;32.30;;;;;;5112642;28;20137;-70
2023/03/09 06:39:24;;;;;;;;;;;18.10;32.20;;;;;;5112594;28;19920;-73
2023/03/09 06:41:49;;;;;;;;;;;18.10;33.00;;;;;;5111581;28;20006;-76
2023/03/09 06:44:15;;;;;;;;;;;18.10;32.20;;;;;;5108244;28;19924;-68
2023/03/09 06:46:41;;;;;;;;;;;18.10;32.40;;;;;;5108028;28;19935;-69
2023/03/09 06:49:06;;;;;;;;;;;18.20;32.80;;;;;;5087529;28;19927;-69
2023/03/09 06:51:32;;;;;;;;;;;18.20;33.00;;;;;;5088587;28;19944;-71
2023/03/09 06:53:57;;;;;;;;;;;18.30;33.30;;;;;;5089266;28;20052;-73
2023/03/09 06:56:23;;;;;;;;;;;18.30;33.30;;;;;;5089032;28;20346;-73
2023/03/09 06:58:48;;;;;;;;;;;18.30;33.50;;;;;;5090551;28;19923;-70
2023/03/09 07:01:15;;;;;;;;;;;18.30;33.70;;;;;;5106504;28;19924;-70
2023/03/09 07:03:41;;;;;;;;;;;18.40;33.90;;;;;;5101612;28;19955;-75
2023/03/09 07:06:07;;;;;;;;;;;18.40;33.90;;;;;;5103085;28;19927;-71
2023/03/09 07:08:32;;;;;;;;;;;18.30;34.30;;;;;;5085885;28;20313;-73
2023/03/09 07:10:58;;;;;;;;;;;18.40;34.40;;;;;;5081378;28;20426;-72
2023/03/09 07:13:24;;;;;;;;;;;18.30;34.20;;;;;;5067832;28;20038;-76
2023/03/09 07:15:50;;;;;;;;;;;18.30;34.50;;;;;;5099068;28;19924;-77
2023/03/09 07:18:15;;;;;;;;;;;18.30;34.40;;;;;;5081089;28;19989;-73
2023/03/09 07:20:41;;;;;;;;;;;18.30;34.50;;;;;;5082514;27;19942;-73
2023/03/09 07:23:09;;;;;;;;;;;18.30;34.60;;;;;;5087821;28;19924;-73
2023/03/09 07:25:35;;;;;;;;;;;18.30;34.60;;;;;;5080661;28;19920;-69
2023/03/09 07:28:02;;;;;;;;;;;18.20;34.70;;;;;;5106060;27;20415;-72
2023/03/09 07:30:28;;;;;;;;;;;18.20;34.60;;;;;;5109440;27;20003;-69
2023/03/09 07:32:56;;;;;;;;;;;18.10;34.60;;;;;;5074602;28;19946;-71
2023/03/09 07:35:21;;;;;;;;;;;18.10;34.90;;;;;;5077519;28;19951;-72
2023/03/09 07:37:47;;;;;;;;;;;18.30;35.60;;;;;;5083199;28;19974;-71
2023/03/09 07:40:12;;;;;;;;;;;18.50;35.50;;;;;;5071133;28;19924;-71
2023/03/09 07:42:38;;;;;;;;;;;18.70;35.50;;;;;;5094964;28;20317;-71
2023/03/09 07:45:04;;;;;;;;;;;19.10;35.50;;;;;;5072804;28;19931;-68
2023/03/09 07:47:31;;;;;;;;;;;19.60;36.40;;;;;;5093158;28;19938;-77
2023/03/09 07:49:57;;;;;;;;;;;20.10;35.20;;;;;;5098924;28;20018;-76
2023/03/09 07:52:24;;;;;;;;;;;20.50;35.10;;;;;;5096006;28;19935;-71
2023/03/09 07:54:50;;;;;;;;;;;20.90;34.70;;;;;;5074346;28;19963;-74
2023/03/09 07:57:16;;;;;;;;;;;21.30;34.30;;;;;;5075631;28;19919;-73
2023/03/09 07:59:41;;;;;;;;;;;21.60;33.90;;;;;;5093028;28;20282;-72
2023/03/09 08:02:09;;;;;;;;;;;21.90;33.60;;;;;;5091357;28;19930;-75
2023/03/09 08:04:35;;;;;;;;;;;22.10;33.30;;;;;;5075765;28;19989;-76
2023/03/09 08:07:00;;;;;;;;;;;22.30;33.00;;;;;;5083889;28;19928;-78
2023/03/09 08:09:27;;;;;;;;;;;22.40;32.90;;;;;;5077456;28;20278;-77
2023/03/09 08:11:53;;;;;;;;;;;22.50;32.70;;;;;;5093077;28;20304;-76
2023/03/09 08:14:22;;;;;;;;;;;22.50;32.60;;;;;;5072899;28;19994;-68
2023/03/09 08:16:47;;;;;;;;;;;22.30;32.40;;;;;;5075788;28;20230;-68
2023/03/09 08:19:13;;;;;;;;;;;22.40;32.50;;;;;;5093658;28;19974;-69
2023/03/09 08:21:38;;;;;;;;;;;22.30;32.50;;;;;;5093403;28;20013;-68
2023/03/09 08:24:04;;;;;;;;;;;22.10;32.60;;;;;;5093848;28;19924;-70
2023/03/09 08:26:29;;;;;;;;;;;22.00;32.80;;;;;;5081925;28;20455;-71
2023/03/09 08:28:55;;;;;;;;;;;21.90;32.90;;;;;;5074933;28;20663;-69
2023/03/09 08:31:21;;;;;;;;;;;21.80;33.10;;;;;;5092307;28;20029;-77
2023/03/09 08:33:46;;;;;;;;;;;21.70;33.30;;;;;;5082933;28;19931;-68
2023/03/09 08:36:13;;;;;;;;;;;21.50;33.30;;;;;;5111311;27;19962;-72
2023/03/09 08:38:39;;;;;;;;;;;21.50;33.50;;;;;;5091587;28;19931;-74
2023/03/09 08:41:04;;;;;;;;;;;21.40;33.50;;;;;;5078275;28;19919;-73
2023/03/09 08:43:30;;;;;;;;;;;21.30;33.70;;;;;;5096307;28;20381;-74
2023/03/09 08:45:55;;;;;;;;;;;21.30;33.70;;;;;;5081504;28;19924;-72
2023/03/09 08:48:21;;;;;;;;;;;21.20;33.80;;;;;;5081019;28;20007;-70
2023/03/09 08:50:46;;;;;;;;;;;21.20;33.80;;;;;;5090773;28;19974;-71
2023/03/09 08:53:12;;;;;;;;;;;21.20;33.90;;;;;;5075443;28;19946;-80
2023/03/09 08:55:37;;;;;;;;;;;21.20;34.00;;;;;;5075119;28;19934;-74
2023/03/09 08:58:03;;;;;;;;;;;21.20;34.00;;;;;;5074914;28;19987;-72
2023/03/09 09:00:28;;;;;;;;;;;21.30;34.10;;;;;;5076007;28;20347;-77
2023/03/09 09:02:54;;;;;;;;;;;21.40;34.20;;;;;;5087657;28;20451;-73
2023/03/09 09:05:19;;;;;;;;;;;21.50;34.10;;;;;;5091685;28;20011;-75
2023/03/09 09:07:45;;;;;;;;;;;21.50;34.00;;;;;;5077282;28;19930;-72
2023/03/09 09:10:11;;;;;;;;;;;21.70;34.00;;;;;;5108245;27;20019;-76
2023/03/09 09:12:37;;;;;;;;;;;21.60;34.00;;;;;;5076266;28;19927;-77
2023/03/09 09:15:04;;;;;;;;;;;21.60;34.00;;;;;;5072090;28;19924;-72
2023/03/09 09:17:29;;;;;;;;;;;21.60;33.90;;;;;;5108752;27;19977;-71
2023/03/09 09:19:58;;;;;;;;;;;21.60;34.00;;;;;;5072640;28;20362;-69
2023/03/09 09:22:23;;;;;;;;;;;21.70;34.10;;;;;;5072085;28;19934;-72
2023/03/09 09:24:49;;;;;;;;;;;21.60;34.10;;;;;;5078142;28;20022;-74
2023/03/09 09:27:14;;;;;;;;;;;21.60;34.10;;;;;;5073843;28;19971;-73
2023/03/09 09:29:40;;;;;;;;;;;21.60;34.10;;;;;;5081353;28;19931;-67
2023/03/09 09:32:06;;;;;;;;;;;21.60;34.20;;;;;;5075612;28;19943;-77
2023/03/09 09:34:32;;;;;;;;;;;21.50;34.20;;;;;;5071151;28;20201;-72
2023/03/09 09:37:00;;;;;;;;;;;21.50;34.20;;;;;;5069035;28;19927;-72
2023/03/09 09:39:26;;;;;;;;;;;21.40;34.00;;;;;;5065662;28;19923;-66
2023/03/09 09:41:53;;;;;;;;;;;21.30;33.90;;;;;;5066501;28;19924;-72
2023/03/09 09:44:25;;;;;;;;;;;21.20;33.90;;;;;;5079522;28;20010;-72
2023/03/09 09:46:52;;;;;;;;;;;21.00;34.10;;;;;;5074595;28;19923;-63
2023/03/09 09:49:19;;;;;;;;;;;21.00;34.40;;;;;;5085641;28;19931;-73
2023/03/09 09:51:50;;;;;;;;;;;21.10;34.70;;;;;;5065793;28;20397;-67
2023/03/09 09:54:22;;;;;;;;;;;21.10;34.40;;;;;;5075011;28;20509;-70
2023/03/09 09:56:50;;;;;;;;;;;21.10;34.10;;;;;;5072898;28;19927;-69
2023/03/09 09:59:38;;;;;;;;;;;21.10;34.00;;;;;;5070891;28;19926;-70
2023/03/09 10:02:26;;;;;;;;;;;21.30;33.80;;;;;;5073218;28;19924;-69
2023/03/09 10:05:12;;;;;;;;;;;21.50;33.50;;;;;;5103459;27;19927;-69
2023/03/09 10:07:38;;;;;;;;;;;21.60;33.20;;;;;;5101642;27;19930;-68
2023/03/09 10:10:10;;;;;;;;;;;21.80;33.00;;;;;;5074162;28;20006;-70
2023/03/09 10:12:36;;;;;;;;;;;21.80;32.70;;;;;;5090266;28;19968;-69
2023/03/09 10:15:06;;;;;;;;;;;21.80;32.60;;;;;;5089006;28;19927;-74
2023/03/09 10:17:34;;;;;;;;;;;21.90;32.60;;;;;;5068390;28;20089;-68
2023/03/09 10:20:09;;;;;;;;;;;21.80;32.50;;;;;;5068284;28;19963;-69
2023/03/09 10:22:36;;;;;;;;;;;21.70;32.50;;;;;;5089834;28;20398;-67
2023/03/09 10:25:09;;;;;;;;;;;21.60;32.50;;;;;;5086431;28;19955;-69
2023/03/09 10:30:19;;;;;;;;;;;21.50;32.60;;;;;;5086915;27;1894582;-71
2023/03/09 10:32:53;;;;;;;;;;;21.40;32.60;;;;;;5111939;27;19931;-69
2023/03/09 10:38:00;;;;;;;;;;;21.30;32.60;;;;;;5065904;27;1872102;-71
2023/03/09 10:40:29;;;;;;;;;;;21.30;32.60;;;;;;5112412;27;19944;-70
2023/03/09 10:42:57;;;;;;;;;;;21.20;32.50;;;;;;5114510;27;19923;-71
2023/03/09 10:48:06;;;;;;;;;;;21.20;32.50;;;;;;5072725;27;19963;-73
2023/03/09 10:50:35;;;;;;;;;;;21.20;32.70;;;;;;5069997;28;20005;-73
2023/03/09 10:53:21;;;;;;;;;;;21.30;33.40;;;;;;5100496;28;20615;-71
2023/03/09 10:55:47;;;;;;;;;;;21.30;33.60;;;;;;5068920;28;20589;-68
2023/03/09 10:58:17;;;;;;;;;;;21.30;33.70;;;;;;5098890;28;19920;-68
2023/03/09 11:03:41;;;;;;;;;;;21.40;34.00;;;;;;5063555;28;19916;-70
2023/03/09 11:06:26;;;;;;;;;;;21.40;33.90;;;;;;5079264;28;19921;-70
2023/03/09 11:11:42;;;;;;;;;;;21.50;33.70;;;;;;5074589;27;19923;-70
2023/03/09 11:14:28;;;;;;;;;;;21.50;33.50;;;;;;5066649;28;19924;-70
2023/03/09 11:16:56;;;;;;;;;;;21.60;33.50;;;;;;5101507;27;19927;-71
2023/03/09 11:19:22;;;;;;;;;;;21.60;33.40;;;;;;5069951;28;20007;-71
2023/03/09 11:22:07;;;;;;;;;;;21.60;33.30;;;;;;5077621;28;20745;-69
2023/03/09 11:24:37;;;;;;;;;;;21.60;33.30;;;;;;5076373;28;19947;-70
2023/03/09 11:27:06;;;;;;;;;;;21.60;33.60;;;;;;5098891;27;19986;-71
2023/03/09 11:32:14;;;;;;;;;;;21.50;33.80;;;;;;5087552;27;19985;-72
2023/03/09 11:34:40;;;;;;;;;;;21.40;33.80;;;;;;5087725;28;20658;-71
2023/03/09 11:37:13;;;;;;;;;;;21.30;33.80;;;;;;5085570;28;19931;-73
2023/03/09 11:42:28;;;;;;;;;;;21.20;33.70;;;;;;5086056;27;1923643;-70
2023/03/09 11:44:54;;;;;;;;;;;21.20;34.10;;;;;;5115334;27;19927;-71
2023/03/09 11:47:30;;;;;;;;;;;21.30;34.20;;;;;;5142727;27;19923;-70
2023/03/09 11:50:01;;;;;;;;;;;21.40;34.70;;;;;;5125400;27;19967;-68
2023/03/09 11:52:33;;;;;;;;;;;21.50;34.90;;;;;;5125612;27;20595;-69
2023/03/09 11:55:03;;;;;;;;;;;21.70;35.00;;;;;;5124306;27;19930;-72
2023/03/09 11:57:30;;;;;;;;;;;21.80;34.50;;;;;;5123471;27;19930;-69
2023/03/09 11:59:58;;;;;;;;;;;21.80;34.30;;;;;;5124230;27;21822;-69
2023/03/09 12:02:32;;;;;;;;;;;21.80;33.90;;;;;;5127292;27;20003;-70
2023/03/09 12:04:58;;;;;;;;;;;21.70;33.80;;;;;;5118122;27;19980;-69
2023/03/09 12:07:28;;;;;;;;;;;21.60;33.70;;;;;;5141252;27;19927;-70
2023/03/09 12:10:13;;;;;;;;;;;21.50;33.70;;;;;;5118006;27;19923;-75
2023/03/09 12:12:43;;;;;;;;;;;21.40;34.00;;;;;;5128761;27;20014;-73
2023/03/09 12:15:18;;;;;;;;;;;21.50;34.00;;;;;;5124933;27;19976;-68
2023/03/09 12:17:48;;;;;;;;;;;21.50;34.10;;;;;;5142636;27;20068;-68
2023/03/09 12:20:32;;;;;;;;;;;21.50;34.10;;;;;;5122961;27;19927;-73
2023/03/09 12:22:57;;;;;;;;;;;21.60;33.90;;;;;;5116914;27;19932;-69
2023/03/09 12:25:25;;;;;;;;;;;21.50;34.10;;;;;;5118567;27;19929;-68
2023/03/09 12:28:00;;;;;;;;;;;21.50;34.00;;;;;;5109719;27;19927;-71
2023/03/09 12:30:30;;;;;;;;;;;21.50;33.90;;;;;;5142356;27;19923;-71
2023/03/09 12:32:56;;;;;;;;;;;21.50;33.80;;;;;;5135470;27;19974;-71
2023/03/09 12:38:05;;;;;;;;;;;21.40;33.70;;;;;;5079364;27;1865310;-72
2023/03/09 12:40:32;;;;;;;;;;;21.40;33.60;;;;;;5128471;27;19962;-74
2023/03/09 12:43:23;;;;;;;;;;;21.60;33.60;;;;;;5129487;27;19980;-71
2023/03/09 12:45:50;;;;;;;;;;;21.50;33.40;;;;;;5128387;27;19931;-75
2023/03/09 12:48:32;;;;;;;;;;;21.40;33.30;;;;;;5130576;27;20437;-71
2023/03/09 12:53:59;;;;;;;;;;;21.40;33.20;;;;;;5082833;27;19946;-74
2023/03/09 12:56:25;;;;;;;;;;;21.40;33.10;;;;;;5072716;28;20276;-74
2023/03/09 12:58:52;;;;;;;;;;;21.40;33.10;;;;;;5071175;28;20422;-74
2023/03/09 13:04:13;;;;;;;;;;;21.40;33.80;;;;;;5093975;27;1926574;-72
2023/03/09 13:09:27;;;;;;;;;;;21.30;32.90;;;;;;5109190;27;19947;-72
2023/03/09 13:23:08;;;;;;;;;;;21.30;33.60;;;;;;5088501;27;1866683;-73
2023/03/09 13:25:39;;;;;;;;;;;21.40;33.70;;;;;;5155909;27;19977;-73
2023/03/09 13:28:13;;;;;;;;;;;21.40;33.70;;;;;;5133109;27;20041;-70
2023/03/09 13:30:41;;;;;;;;;;;21.40;33.80;;;;;;5133030;27;19930;-67
2023/03/09 13:33:14;;;;;;;;;;;21.50;33.80;;;;;;5130609;27;20021;-69
2023/03/09 13:35:49;;;;;;;;;;;21.60;34.00;;;;;;5130875;27;19959;-70
2023/03/09 13:38:19;;;;;;;;;;;21.50;33.80;;;;;;5127627;27;19934;-71
2023/03/09 13:40:47;;;;;;;;;;;21.60;33.80;;;;;;5126833;27;19923;-69
2023/03/09 13:43:15;;;;;;;;;;;21.60;33.80;;;;;;5149267;27;19930;-70
2023/03/09 13:45:53;;;;;;;;;;;21.70;33.90;;;;;;5123541;27;19919;-70
2023/03/09 13:48:19;;;;;;;;;;;21.60;33.90;;;;;;5129634;27;20014;-74
2023/03/09 13:50:45;;;;;;;;;;;21.70;34.20;;;;;;5133540;27;20018;-74
2023/03/09 13:56:01;;;;;;;;;;;21.70;34.20;;;;;;5095935;27;20067;-66
2023/03/09 13:58:28;;;;;;;;;;;21.80;34.20;;;;;;5070125;28;19920;-71
2023/03/09 14:03:34;;;;;;;;;;;21.80;34.30;;;;;;5073989;28;20317;-72
2023/03/09 14:06:09;;;;;;;;;;;21.70;34.30;;;;;;5069402;28;19920;-67
2023/03/09 14:08:39;;;;;;;;;;;21.80;34.40;;;;;;5071632;28;19927;-76
2023/03/09 14:11:06;;;;;;;;;;;21.80;34.50;;;;;;5058558;28;19928;-70
2023/03/09 14:13:35;;;;;;;;;;;21.80;34.60;;;;;;5062434;28;19925;-69
2023/03/09 14:16:05;;;;;;;;;;;21.80;34.70;;;;;;5058131;28;19924;-71
2023/03/09 14:21:29;;;;;;;;;;;21.60;33.90;;;;;;5095311;27;19923;-71
2023/03/09 14:23:58;;;;;;;;;;;21.50;34.10;;;;;;5072695;28;19928;-71
2023/03/09 14:26:26;;;;;;;;;;;21.40;34.30;;;;;;5080580;28;19924;-72
2023/03/09 14:31:37;;;;;;;;;;;21.30;34.50;;;;;;5103338;27;1921460;-72
2023/03/09 14:34:05;;;;;;;;;;;21.20;34.60;;;;;;5150450;27;19933;-72
2023/03/09 14:36:36;;;;;;;;;;;21.20;34.60;;;;;;5157754;27;19923;-73
2023/03/09 14:39:10;;;;;;;;;;;21.20;34.70;;;;;;5156818;27;19923;-72
2023/03/09 14:41:36;;;;;;;;;;;21.20;34.70;;;;;;5155060;27;19967;-72
2023/03/09 14:44:03;;;;;;;;;;;21.20;34.80;;;;;;5153424;27;19922;-72
2023/03/09 14:46:29;;;;;;;;;;;21.20;34.70;;;;;;5154775;27;19925;-73
2023/03/09 14:48:59;;;;;;;;;;;21.20;34.70;;;;;;5153535;27;19918;-73
2023/03/09 14:51:26;;;;;;;;;;;21.30;34.70;;;;;;5155523;27;19929;-73
2023/03/09 14:53:56;;;;;;;;;;;21.30;34.60;;;;;;5156599;27;20017;-73
2023/03/09 14:56:22;;;;;;;;;;;21.40;34.50;;;;;;5159126;27;19922;-72
2023/03/09 14:58:47;;;;;;;;;;;21.40;34.50;;;;;;5155129;27;20005;-72
2023/03/09 15:01:13;;;;;;;;;;;21.50;34.40;;;;;;5158024;27;20056;-73
2023/03/09 15:03:39;;;;;;;;;;;21.50;34.30;;;;;;5173816;27;19919;-73
2023/03/09 15:06:05;;;;;;;;;;;21.50;34.30;;;;;;5156636;27;20381;-73
2023/03/09 15:08:31;;;;;;;;;;;21.60;34.30;;;;;;5151443;27;19975;-73
2023/03/09 15:10:57;;;;;;;;;;;21.60;34.20;;;;;;5150796;27;20347;-73
2023/03/09 15:13:25;;;;;;;;;;;21.60;34.10;;;;;;5133162;27;19934;-73
2023/03/09 15:15:51;;;;;;;;;;;21.80;34.00;;;;;;5133987;27;19935;-73
2023/03/09 15:18:16;;;;;;;;;;;21.80;33.80;;;;;;5140637;27;19919;-73